Time;durP1;ratioP1;P1;durP2;ratioP2;P2;SDS_P1;SDS_P2;PMS_P1;PMS_P2;Temp;Humidity;BMP_temperature;BMP_pressure;BME280_temperature;BME280_humidity;BME280_pressure;Samples;Min_cycle;Max_cycle;Signal;HPM_P1;HPM_P2
2023/04/17 00:02:25;;;;;;;26.10;17.70;;;;;;;5.30;79.90;100222.60;217726;1264;140581;-68
2023/04/17 00:07:29;;;;;;;27.90;17.60;;;;;;;5.23;79.53;100218.88;218771;1263;140199;-69
2023/04/17 00:12:32;;;;;;;22.20;15.70;;;;;;;5.18;79.91;100214.45;217433;1264;140764;-68
2023/04/17 00:17:36;;;;;;;24.70;16.20;;;;;;;5.14;79.90;100219.02;218020;1264;140391;-69
2023/04/17 00:22:39;;;;;;;24.60;15.30;;;;;;;5.10;79.90;100220.21;217648;1268;141759;-69
2023/04/17 00:27:42;;;;;;;27.20;16.30;;;;;;;5.07;80.13;100224.08;216789;1264;142289;-68
2023/04/17 00:32:46;;;;;;;22.50;16.10;;;;;;;5.04;80.30;100224.38;217640;1264;140681;-68
2023/04/17 00:37:48;;;;;;;22.30;15.60;;;;;;;5.00;80.31;100226.84;216959;1264;141271;-69
2023/04/17 00:42:54;;;;;;;27.90;15.60;;;;;;;4.91;80.28;100228.09;217185;1264;140787;-68
2023/04/17 00:48:00;;;;;;;20.20;13.60;;;;;;;4.82;80.44;100228.39;216764;1264;142540;-69
2023/04/17 00:53:03;;;;;;;24.80;14.60;;;;;;;4.74;80.41;100231.66;217569;1263;140332;-68
2023/04/17 00:58:06;;;;;;;21.40;15.30;;;;;;;4.67;80.34;100231.33;217428;1264;141273;-67
2023/04/17 01:03:09;;;;;;;26.60;15.50;;;;;;;4.62;80.57;100231.06;216776;1264;140545;-68
2023/04/17 01:08:15;;;;;;;23.40;15.50;;;;;;;4.60;80.71;100236.63;217979;1264;140748;-68
2023/04/17 01:13:20;;;;;;;19.40;13.00;;;;;;;4.58;80.85;100237.40;216931;1264;140153;-68
2023/04/17 01:18:23;;;;;;;20.70;14.80;;;;;;;4.54;81.03;100237.73;218642;1263;141310;-68
2023/04/17 01:23:28;;;;;;;20.90;15.00;;;;;;;4.51;80.92;100234.46;217817;1264;140552;-67
2023/04/17 01:28:32;;;;;;;22.30;13.80;;;;;;;4.48;80.86;100236.08;217382;1264;140402;-68
2023/04/17 01:33:35;;;;;;;25.90;16.20;;;;;;;4.45;81.12;100236.02;218168;1264;140987;-68
2023/04/17 01:38:38;;;;;;;26.70;16.70;;;;;;;4.46;81.59;100238.90;219226;1264;141158;-68
2023/04/17 01:43:45;;;;;;;25.60;17.20;;;;;;;4.49;81.82;100243.58;218540;1263;140708;-67
2023/04/17 01:48:49;;;;;;;30.30;17.90;;;;;;;4.53;81.81;100245.30;219292;1264;140408;-68
2023/04/17 01:53:54;;;;;;;30.70;17.00;;;;;;;4.55;82.10;100249.23;218428;1263;141136;-68
2023/04/17 01:58:58;;;;;;;29.10;17.60;;;;;;;4.56;82.22;100246.68;217848;1263;141150;-67
2023/04/17 02:04:02;;;;;;;26.30;16.30;;;;;;;4.57;82.49;100251.58;217518;1264;140356;-68
2023/04/17 02:09:06;;;;;;;34.70;18.70;;;;;;;4.60;83.03;100253.87;218257;1263;140373;-68
2023/04/17 02:14:09;;;;;;;41.20;17.90;;;;;;;4.63;83.14;100254.35;217405;1263;153174;-67
2023/04/17 02:19:13;;;;;;;51.00;18.90;;;;;;;4.66;83.68;100255.85;217667;1267;140742;-68
2023/04/17 02:24:17;;;;;;;44.50;20.40;;;;;;;4.67;83.79;100255.02;217658;1263;140432;-67
2023/04/17 02:29:20;;;;;;;53.60;20.20;;;;;;;4.70;84.19;100253.59;216744;1267;140815;-68
2023/04/17 02:34:23;;;;;;;30.00;15.20;;;;;;;4.71;84.49;100255.48;217074;1264;140278;-69
2023/04/17 02:39:27;;;;;;;23.40;14.40;;;;;;;4.76;84.55;100253.27;217499;1264;142637;-68
2023/04/17 02:44:31;;;;;;;53.00;17.30;;;;;;;4.80;84.89;100257.83;217704;1263;140520;-68
2023/04/17 02:49:38;;;;;;;57.30;17.40;;;;;;;4.85;84.85;100255.26;216892;1263;141482;-68
2023/04/17 02:54:41;;;;;;;19.30;10.70;;;;;;;4.88;85.19;100254.15;217285;1264;141022;-67
2023/04/17 02:59:46;;;;;;;25.50;13.20;;;;;;;4.89;85.45;100248.21;218199;1263;140307;-68
2023/04/17 03:04:49;;;;;;;28.90;15.60;;;;;;;4.91;85.32;100251.60;217912;1263;142788;-68
2023/04/17 03:09:57;;;;;;;34.60;16.40;;;;;;;4.94;85.80;100256.28;218205;1264;141992;-67
2023/04/17 03:15:02;;;;;;;25.80;15.10;;;;;;;4.98;85.76;100260.23;218492;1263;140328;-67
2023/04/17 03:20:06;;;;;;;21.70;14.40;;;;;;;5.02;85.78;100259.75;218313;1263;140508;-67
2023/04/17 03:25:09;;;;;;;25.50;17.50;;;;;;;5.03;85.83;100259.20;219487;1263;140007;-68
2023/04/17 03:30:13;;;;;;;31.20;14.70;;;;;;;5.05;85.92;100263.05;219388;1263;141114;-68
2023/04/17 03:35:16;;;;;;;22.50;14.00;;;;;;;5.07;85.89;100263.52;219511;1263;140874;-68
2023/04/17 03:40:19;;;;;;;23.00;14.90;;;;;;;5.13;86.01;100267.11;218766;1263;141879;-69
2023/04/17 03:45:21;;;;;;;20.80;11.90;;;;;;;5.18;86.27;100269.75;219593;1263;140034;-67
2023/04/17 03:50:25;;;;;;;23.10;14.30;;;;;;;5.25;86.19;100278.41;218661;1263;140310;-68
2023/04/17 03:55:29;;;;;;;17.40;11.40;;;;;;;5.30;86.63;100283.89;218542;1263;140195;-68
2023/04/17 04:00:33;;;;;;;21.70;12.60;;;;;;;5.33;86.50;100290.27;218431;1263;140660;-68
2023/04/17 04:05:38;;;;;;;19.80;14.00;;;;;;;5.36;86.32;100294.45;217791;1263;140884;-68
2023/04/17 04:10:43;;;;;;;24.20;16.00;;;;;;;5.43;86.81;100294.77;217782;1263;140747;-70
2023/04/17 04:15:46;;;;;;;21.90;14.60;;;;;;;5.48;86.63;100298.13;218431;1263;141104;-68
2023/04/17 04:20:49;;;;;;;18.40;12.70;;;;;;;5.52;86.92;100299.21;217308;1263;140428;-68
2023/04/17 04:25:56;;;;;;;22.60;13.80;;;;;;;5.57;87.00;100297.55;218045;1263;140520;-67
2023/04/17 04:31:01;;;;;;;21.40;12.10;;;;;;;5.63;87.26;100300.90;217058;1267;140812;-69
2023/04/17 04:36:03;;;;;;;22.20;13.00;;;;;;;5.69;87.57;100306.86;217950;1263;141048;-69
2023/04/17 04:41:08;;;;;;;22.40;14.10;;;;;;;5.72;87.23;100303.94;216766;1263;141134;-69
2023/04/17 04:46:12;;;;;;;25.70;16.00;;;;;;;5.77;87.61;100303.70;216750;1267;140369;-68
2023/04/17 04:51:17;;;;;;;25.20;14.70;;;;;;;5.83;87.46;100299.33;218080;1263;140962;-69
2023/04/17 04:56:21;;;;;;;23.90;14.20;;;;;;;5.90;87.73;100303.05;216895;1263;140194;-69
2023/04/17 05:01:23;;;;;;;22.50;14.60;;;;;;;5.96;87.60;100301.33;218432;1263;140281;-68
2023/04/17 05:06:26;;;;;;;20.70;12.00;;;;;;;6.05;87.70;100302.38;218129;1264;141225;-67
2023/04/17 05:11:29;;;;;;;19.40;14.60;;;;;;;6.17;88.12;100301.40;216909;1263;141292;-67
2023/04/17 05:16:32;;;;;;;23.60;15.20;;;;;;;6.32;87.70;100305.77;219531;1263;140200;-70
2023/04/17 05:21:35;;;;;;;20.90;14.60;;;;;;;6.51;87.71;100304.52;217051;1267;140849;-68
2023/04/17 05:26:38;;;;;;;17.10;13.10;;;;;;;6.70;87.70;100298.82;217204;1264;141110;-70
2023/04/17 05:31:42;;;;;;;22.70;14.80;;;;;;;6.84;87.39;100308.79;219560;1263;142001;-70
2023/04/17 05:36:46;;;;;;;24.20;15.40;;;;;;;6.95;87.57;100312.93;219482;1263;140785;-70
2023/04/17 05:41:49;;;;;;;24.00;15.00;;;;;;;7.07;87.20;100318.07;218043;1263;235860;-71
2023/04/17 05:46:56;;;;;;;23.30;16.80;;;;;;;7.23;87.19;100320.70;218103;1263;140832;-67
2023/04/17 05:52:00;;;;;;;;;;;;;;;7.31;86.90;100321.88;217741;1264;141632;-71
2023/04/17 05:57:04;;;;;;;21.80;15.80;;;;;;;7.35;86.80;100317.51;217892;1263;126978;-70
2023/04/17 06:02:10;;;;;;;20.90;14.50;;;;;;;7.42;86.78;100323.82;216716;1264;141138;-66
2023/04/17 06:07:14;;;;;;;22.00;13.90;;;;;;;7.51;86.89;100327.12;217356;1263;142339;-68
2023/04/17 06:12:19;;;;;;;19.00;12.70;;;;;;;7.52;86.87;100332.14;216725;1264;139767;-69
2023/04/17 06:17:22;;;;;;;24.20;14.50;;;;;;;7.47;86.72;100334.33;217067;1263;140837;-69
2023/04/17 06:22:27;;;;;;;24.70;16.40;;;;;;;7.48;87.11;100337.51;217409;1264;140777;-68
2023/04/17 06:27:30;;;;;;;28.80;17.10;;;;;;;7.56;87.16;100341.46;217460;1264;140639;-67
2023/04/17 06:32:35;;;;;;;25.10;16.40;;;;;;;7.64;87.01;100348.86;217200;1264;141348;-67
2023/04/17 06:37:38;;;;;;;25.30;15.80;;;;;;;7.84;86.74;100348.90;217166;1263;140095;-67
2023/04/17 06:42:41;;;;;;;19.90;14.50;;;;;;;7.99;86.96;100356.08;217381;1263;140660;-66
2023/04/17 06:47:45;;;;;;;22.90;15.20;;;;;;;8.17;86.87;100357.44;216820;1263;141120;-68
2023/04/17 06:52:48;;;;;;;24.50;16.60;;;;;;;8.28;86.80;100363.15;217627;1263;140449;-68
2023/04/17 06:57:53;;;;;;;19.80;15.00;;;;;;;8.32;86.47;100367.33;217315;1264;140371;-68
2023/04/17 07:02:56;;;;;;;20.20;14.10;;;;;;;8.25;86.78;100373.82;217588;1264;142760;-69
2023/04/17 07:07:58;;;;;;;21.70;15.90;;;;;;;8.14;86.20;100377.41;218346;1264;140418;-69
2023/04/17 07:13:02;;;;;;;19.40;14.60;;;;;;;8.02;86.09;100377.96;217185;1263;141333;-69
2023/04/17 07:18:05;;;;;;;21.90;15.30;;;;;;;7.97;86.34;100378.86;218099;1263;140776;-69
2023/04/17 07:23:10;;;;;;;16.50;13.50;;;;;;;7.99;86.68;100381.02;219602;1263;151030;-68
2023/04/17 07:28:15;;;;;;;15.70;11.10;;;;;;;8.08;86.70;100383.73;219620;1263;140802;-68
2023/04/17 07:33:18;;;;;;;19.60;13.20;;;;;;;8.18;86.33;100379.09;219556;1263;139834;-70
2023/04/17 07:38:22;;;;;;;14.80;11.40;;;;;;;8.32;86.27;100381.48;216747;1263;140244;-71
2023/04/17 07:43:28;;;;;;;18.40;12.50;;;;;;;8.37;86.24;100382.31;219166;1263;141650;-72
2023/04/17 07:48:32;;;;;;;19.40;12.90;;;;;;;8.40;86.06;100392.27;216969;1263;142497;-71
2023/04/17 07:53:37;;;;;;;17.20;13.10;;;;;;;8.46;86.18;100398.70;217271;1264;139895;-71
2023/04/17 07:58:41;;;;;;;19.20;13.20;;;;;;;8.58;86.07;100399.39;216791;1264;140394;-71
2023/04/17 08:03:44;;;;;;;18.20;13.40;;;;;;;8.78;86.47;100402.80;216903;1262;140598;-72
2023/04/17 08:08:47;;;;;;;19.40;13.10;;;;;;;9.13;86.46;100402.05;216553;1267;141437;-71
2023/04/17 08:13:51;;;;;;;16.90;12.80;;;;;;;9.56;86.49;100398.92;216764;1267;140527;-71
2023/04/17 08:18:55;;;;;;;21.10;14.40;;;;;;;9.86;86.05;100404.14;216700;1264;140403;-70
2023/04/17 08:23:58;;;;;;;19.40;13.40;;;;;;;10.09;85.77;100408.02;216663;1263;140617;-68
2023/04/17 08:29:03;;;;;;;19.40;13.40;;;;;;;10.31;85.21;100410.77;216866;1263;141365;-67
2023/04/17 08:34:07;;;;;;;17.00;13.10;;;;;;;10.66;84.84;100408.52;216963;1264;153797;-71
2023/04/17 08:39:18;;;;;;;23.20;14.70;;;;;;;11.12;84.59;100411.97;216938;1263;140960;-71
2023/04/17 08:44:22;;;;;;;21.70;14.60;;;;;;;11.45;84.12;100410.73;216827;1263;141325;-70
2023/04/17 08:49:29;;;;;;;17.20;14.20;;;;;;;11.77;83.49;100411.65;218092;1264;140774;-71
2023/04/17 08:54:35;;;;;;;20.40;16.40;;;;;;;12.11;82.75;100410.36;217002;1263;140717;-69
2023/04/17 08:59:41;;;;;;;17.20;13.60;;;;;;;12.44;82.36;100417.98;216639;1264;143701;-69
2023/04/17 09:04:45;;;;;;;16.60;13.90;;;;;;;12.86;81.86;100422.52;217089;1263;140884;-70
2023/04/17 09:09:51;;;;;;;21.20;15.70;;;;;;;12.97;80.84;100426.88;217689;1267;140114;-70
2023/04/17 09:14:54;;;;;;;15.30;13.30;;;;;;;13.01;80.06;100433.77;218153;1264;141121;-70
2023/04/17 09:20:10;;;;;;;15.30;12.50;;;;;;;13.08;80.04;100430.77;218486;1263;140244;-70
2023/04/17 09:25:19;;;;;;;12.70;11.50;;;;;;;13.19;79.55;100431.41;219774;1263;141950;-72
2023/04/17 09:30:25;;;;;;;15.70;12.80;;;;;;;13.36;79.33;100430.27;219572;1263;141114;-74
2023/04/17 09:35:30;;;;;;;15.40;11.40;;;;;;;13.81;78.67;100421.80;218439;1263;141803;-73
2023/04/17 09:40:41;;;;;;;16.10;12.60;;;;;;;14.08;77.99;100422.36;218326;1263;141772;-73
2023/04/17 09:45:45;;;;;;;15.40;12.30;;;;;;;14.07;77.06;100423.41;217493;1263;141462;-68
2023/04/17 09:50:48;;;;;;;14.20;12.60;;;;;;;14.23;77.31;100416.14;216557;1264;140538;-71
2023/04/17 09:55:52;;;;;;;13.70;12.30;;;;;;;14.70;77.53;100419.30;218411;1263;140682;-70
2023/04/17 10:00:56;;;;;;;18.20;15.70;;;;;;;14.87;76.12;100422.94;216784;1263;140687;-70
2023/04/17 10:06:00;;;;;;;19.60;14.80;;;;;;;15.10;75.90;100433.30;217906;1263;141479;-71
2023/04/17 10:11:06;;;;;;;14.60;13.10;;;;;;;15.16;74.69;100438.66;217351;1263;141246;-70
2023/04/17 10:16:08;;;;;;;13.30;11.80;;;;;;;14.82;73.72;100439.77;216604;1267;140392;-70
2023/04/17 10:21:23;;;;;;;13.50;11.50;;;;;;;14.66;73.94;100440.16;217185;1263;141042;-72
2023/04/17 10:26:27;;;;;;;15.50;12.60;;;;;;;14.77;73.86;100437.23;216734;1264;141404;-69
2023/04/17 10:32:09;;;;;;;12.30;11.00;;;;;;;14.86;73.99;100440.15;217020;1263;140942;-69
2023/04/17 10:37:16;;;;;;;13.50;10.20;;;;;;;14.88;73.53;100436.96;217270;1263;141191;-71
2023/04/17 10:42:21;;;;;;;13.60;12.10;;;;;;;14.93;73.28;100437.95;216834;1264;141329;-74
2023/04/17 10:47:34;;;;;;;13.80;12.10;;;;;;;14.93;73.12;100433.55;216502;1264;141169;-73
2023/04/17 10:52:40;;;;;;;12.50;11.00;;;;;;;15.00;72.79;100422.90;217347;1263;141039;-73
2023/04/17 10:57:56;;;;;;;13.20;10.40;;;;;;;15.23;72.64;100417.73;216785;1264;141535;-74
2023/04/17 11:03:00;;;;;;;15.60;11.30;;;;;;;15.50;72.61;100408.15;217764;1264;141558;-73
2023/04/17 11:08:17;;;;;;;12.10;9.60;;;;;;;15.73;72.54;100402.57;217151;1263;141430;-72
2023/04/17 11:13:20;;;;;;;10.50;9.40;;;;;;;16.11;72.12;100397.64;217900;1264;143111;-72
2023/04/17 11:18:25;;;;;;;11.20;10.00;;;;;;;16.43;71.41;100399.43;219625;1264;141862;-72
2023/04/17 11:23:32;;;;;;;12.70;10.00;;;;;;;16.33;70.38;100412.89;217205;1264;139954;-72
2023/04/17 11:28:35;;;;;;;10.70;9.80;;;;;;;16.28;70.16;100406.88;217508;1263;141370;-73
2023/04/17 11:33:38;;;;;;;12.00;8.30;;;;;;;16.31;69.70;100408.02;217687;1264;140268;-74
2023/04/17 11:38:47;;;;;;;10.90;8.60;;;;;;;16.11;69.12;100408.20;217673;1264;140150;-74
2023/04/17 11:43:50;;;;;;;9.30;8.40;;;;;;;16.19;69.53;100407.98;217465;1265;140232;-74
2023/04/17 11:48:55;;;;;;;12.80;11.20;;;;;;;15.94;69.08;100408.92;216155;1267;510051;-75
2023/04/17 11:53:59;;;;;;;10.30;9.30;;;;;;;15.73;69.02;100407.73;217305;1264;141906;-73
2023/04/17 11:59:04;;;;;;;11.80;9.90;;;;;;;15.65;68.99;100408.34;217724;1263;140752;-72
2023/04/17 12:04:20;;;;;;;15.10;10.00;;;;;;;15.75;69.30;100409.65;217482;1267;141494;-73
2023/04/17 12:09:27;;;;;;;13.80;11.50;;;;;;;15.68;69.40;100418.05;216518;1265;141814;-72
2023/04/17 12:14:31;;;;;;;14.40;9.80;;;;;;;15.56;69.21;100416.77;217215;1264;140378;-74
2023/04/17 12:19:34;;;;;;;13.50;11.10;;;;;;;15.55;69.41;100416.27;217037;1265;140961;-70
2023/04/17 12:24:36;;;;;;;12.20;10.30;;;;;;;15.60;69.40;100410.65;216509;1264;141408;-72
2023/04/17 12:29:39;;;;;;;10.80;9.80;;;;;;;15.53;69.63;100410.34;216390;1265;152195;-71
2023/04/17 12:34:50;;;;;;;14.70;11.70;;;;;;;15.28;69.28;100411.30;216544;1265;141342;-73
2023/04/17 12:39:54;;;;;;;15.60;10.50;;;;;;;15.01;69.08;100408.41;216324;1267;141270;-71
2023/04/17 12:44:57;;;;;;;14.40;11.20;;;;;;;14.74;69.59;100416.40;216320;1267;140510;-75
2023/04/17 12:50:02;;;;;;;14.70;11.70;;;;;;;14.53;69.92;100416.02;216708;1263;140146;-72
2023/04/17 12:55:07;;;;;;;14.10;11.30;;;;;;;14.20;70.50;100418.44;218283;1262;142260;-73
2023/04/17 13:00:12;;;;;;;12.50;11.30;;;;;;;13.91;70.78;100421.45;219519;1263;142541;-72
2023/04/17 13:05:16;;;;;;;13.50;11.00;;;;;;;13.61;71.25;100435.13;219473;1263;141078;-69
2023/04/17 13:10:19;;;;;;;16.90;13.20;;;;;;;13.36;72.26;100441.63;217106;1264;140812;-71
2023/04/17 13:15:23;;;;;;;19.10;13.80;;;;;;;13.07;72.88;100443.75;219556;1267;141489;-72
2023/04/17 13:20:26;;;;;;;18.80;14.30;;;;;;;12.86;73.72;100443.49;219574;1264;140982;-70
2023/04/17 13:25:29;;;;;;;17.60;12.70;;;;;;;12.81;74.46;100440.16;218712;1264;142066;-72
2023/04/17 13:30:34;;;;;;;14.00;11.90;;;;;;;12.80;75.11;100442.51;219315;1265;141211;-71
2023/04/17 13:35:39;;;;;;;20.00;13.90;;;;;;;12.87;75.66;100440.98;216847;1265;140392;-71
2023/04/17 13:40:42;;;;;;;18.80;14.60;;;;;;;12.96;75.87;100438.27;216504;1265;141098;-75
2023/04/17 13:45:47;;;;;;;22.10;13.60;;;;;;;13.01;76.40;100437.52;216549;1264;140256;-74
2023/04/17 13:50:50;;;;;;;16.90;13.30;;;;;;;13.04;76.56;100433.10;216526;1266;141242;-73
2023/04/17 13:55:53;;;;;;;17.90;13.70;;;;;;;13.10;76.97;100433.66;217097;1264;141635;-71
2023/04/17 14:00:58;;;;;;;20.60;14.80;;;;;;;13.14;77.20;100434.13;216364;1267;141256;-73
2023/04/17 14:06:02;;;;;;;17.20;13.50;;;;;;;13.17;77.44;100427.20;217288;1267;141248;-73
2023/04/17 14:11:06;;;;;;;21.70;13.60;;;;;;;13.21;77.31;100430.01;216597;1264;140886;-73
2023/04/17 14:16:10;;;;;;;17.60;13.40;;;;;;;13.29;77.82;100428.42;217634;1267;141514;-72
2023/04/17 14:21:13;;;;;;;17.60;12.90;;;;;;;13.44;78.31;100421.73;216559;1266;140979;-72
2023/04/17 14:26:16;;;;;;;18.50;13.70;;;;;;;13.63;78.24;100415.14;216724;1265;140545;-70
2023/04/17 14:31:20;;;;;;;22.70;16.40;;;;;;;13.79;78.41;100411.52;216489;1267;140121;-74
2023/04/17 14:36:24;;;;;;;21.30;15.50;;;;;;;13.92;78.22;100407.16;216577;1265;141042;-73
2023/04/17 14:41:30;;;;;;;26.10;17.80;;;;;;;14.00;78.07;100407.91;216440;1267;140720;-76
2023/04/17 14:46:33;;;;;;;19.70;15.30;;;;;;;14.09;78.48;100404.25;216670;1263;141329;-82
2023/04/17 14:51:36;;;;;;;23.00;16.20;;;;;;;14.19;78.35;100407.90;217540;1265;140488;-71
2023/04/17 14:56:38;;;;;;;22.10;14.40;;;;;;;14.26;78.19;100406.80;216139;1267;140991;-77
2023/04/17 15:01:41;;;;;;;19.30;14.20;;;;;;;14.32;78.11;100401.59;216404;1264;141199;-75
2023/04/17 15:06:43;;;;;;;21.20;15.80;;;;;;;14.35;78.27;100404.02;216971;1267;141007;-73
2023/04/17 15:11:47;;;;;;;22.50;12.60;;;;;;;14.32;78.18;100399.77;216373;1268;140715;-76
2023/04/17 15:16:50;;;;;;;20.50;14.30;;;;;;;14.10;77.51;100401.05;216504;1268;140995;-77
2023/04/17 15:21:52;;;;;;;17.20;13.10;;;;;;;13.91;77.37;100401.34;216500;1266;140762;-74
2023/04/17 15:26:56;;;;;;;16.90;13.50;;;;;;;13.75;77.38;100404.16;216385;1264;140507;-77
2023/04/17 15:32:01;;;;;;;14.60;11.90;;;;;;;13.67;77.44;100397.74;217715;1264;141646;-77
2023/04/17 15:37:08;;;;;;;15.30;11.30;;;;;;;13.68;77.79;100394.92;216334;1267;141854;-75
2023/04/17 15:42:12;;;;;;;;;;;;;;;13.62;77.76;100397.02;216215;1267;141282;-73
2023/04/17 15:47:15;;;;;;;16.60;11.50;;;;;;;13.49;77.94;100412.55;216592;1266;127251;-73
2023/04/17 15:52:18;;;;;;;8.40;5.50;;;;;;;13.26;77.16;100446.39;216000;1268;142979;-72
2023/04/17 15:57:21;;;;;;;9.20;5.90;;;;;;;12.81;76.55;100455.15;216320;1268;140797;-72
2023/04/17 16:02:24;;;;;;;5.60;4.60;;;;;;;12.40;76.78;100455.31;216783;1267;140217;-71
2023/04/17 16:07:27;;;;;;;8.50;4.70;;;;;;;12.06;77.47;100457.22;216472;1267;139820;-73
2023/04/17 16:12:30;;;;;;;6.40;5.10;;;;;;;11.80;77.73;100453.66;216400;1267;141207;-71
2023/04/17 16:17:33;;;;;;;5.30;4.50;;;;;;;11.62;78.06;100453.56;216736;1267;141824;-73
2023/04/17 16:22:38;;;;;;;7.40;6.00;;;;;;;11.49;78.71;100445.02;216421;1263;211181;-72
2023/04/17 16:27:42;;;;;;;6.30;5.50;;;;;;;11.47;79.38;100444.91;216589;1267;141730;-75
2023/04/17 16:32:47;;;;;;;7.80;7.00;;;;;;;11.48;79.75;100444.09;217070;1267;140654;-74
2023/04/17 16:37:57;;;;;;;8.90;7.80;;;;;;;11.44;79.50;100445.52;216627;1267;142385;-76
2023/04/17 16:43:10;;;;;;;7.80;6.80;;;;;;;11.41;79.97;100446.94;217506;1265;140089;-76
2023/04/17 16:48:17;;;;;;;12.90;8.40;;;;;;;11.36;80.22;100442.04;216665;1267;144924;-72
2023/04/17 16:53:23;;;;;;;12.50;8.00;;;;;;;11.27;80.40;100449.05;216623;1267;141830;-70
2023/04/17 16:58:27;;;;;;;13.10;9.00;;;;;;;11.20;80.67;100449.62;216425;1263;140992;-69
2023/04/17 17:03:32;;;;;;;10.60;7.70;;;;;;;11.14;81.03;100449.75;218524;1265;141717;-70
2023/04/17 17:08:38;;;;;;;11.90;8.70;;;;;;;11.08;81.08;100454.85;219420;1267;142935;-70
2023/04/17 17:13:40;;;;;;;11.20;9.20;;;;;;;11.03;81.36;100461.21;218580;1264;140410;-73
2023/04/17 17:18:44;;;;;;;11.30;8.40;;;;;;;11.01;81.54;100460.95;216718;1264;141317;-77
2023/04/17 17:23:48;;;;;;;11.10;8.10;;;;;;;10.97;81.70;100464.73;216477;1267;141142;-76
2023/04/17 17:28:52;;;;;;;11.50;9.90;;;;;;;10.92;82.13;100469.80;216946;1264;140639;-73
2023/04/17 17:34:00;;;;;;;14.60;9.90;;;;;;;10.86;82.36;100478.83;217554;1268;141751;-73
2023/04/17 17:39:28;;;;;;;12.00;9.60;;;;;;;10.80;82.68;100480.43;217644;1264;140876;-74
2023/04/17 17:44:31;;;;;;;15.10;11.90;;;;;;;10.74;82.71;100483.09;217398;1267;140586;-73
2023/04/17 17:49:35;;;;;;;14.00;10.40;;;;;;;10.71;83.04;100483.58;217338;1264;143383;-78
2023/04/17 17:54:40;;;;;;;15.70;11.20;;;;;;;10.68;83.27;100481.84;216944;1268;153219;-74
2023/04/17 17:59:44;;;;;;;14.90;11.80;;;;;;;10.66;83.46;100486.46;216688;1267;140411;-76
2023/04/17 18:04:48;;;;;;;21.40;14.30;;;;;;;10.65;83.82;100489.95;216809;1267;141289;-73
2023/04/17 18:09:52;;;;;;;16.10;11.40;;;;;;;10.65;83.89;100496.20;216398;1267;141280;-69
2023/04/17 18:14:56;;;;;;;18.40;14.20;;;;;;;10.63;84.12;100501.45;217088;1264;141247;-69
2023/04/17 18:20:01;;;;;;;19.10;12.80;;;;;;;10.62;84.28;100506.30;216452;1267;141553;-71
2023/04/17 18:25:07;;;;;;;19.10;12.50;;;;;;;10.60;84.31;100505.33;217266;1267;140615;-71
2023/04/17 18:30:10;;;;;;;15.20;11.60;;;;;;;10.54;84.47;100511.11;216546;1268;140940;-76
2023/04/17 18:35:15;;;;;;;17.30;12.80;;;;;;;10.52;84.70;100515.06;217283;1267;141254;-70
2023/04/17 18:40:20;;;;;;;18.40;12.30;;;;;;;10.49;84.74;100517.86;218862;1264;140422;-70
2023/04/17 18:45:24;;;;;;;19.00;12.90;;;;;;;10.47;84.94;100521.36;216446;1274;140765;-72
2023/04/17 18:50:28;;;;;;;19.70;13.40;;;;;;;10.45;84.97;100523.34;219428;1263;141282;-72
2023/04/17 18:55:31;;;;;;;22.20;14.20;;;;;;;10.42;85.08;100525.57;216794;1264;140656;-70
2023/04/17 19:00:36;;;;;;;25.10;16.40;;;;;;;10.39;85.25;100525.59;216522;1263;140612;-82
2023/04/17 19:05:39;;;;;;;16.80;11.80;;;;;;;10.37;85.28;100529.48;216560;1264;140458;-78
2023/04/17 19:10:42;;;;;;;21.60;13.80;;;;;;;10.36;85.50;100532.84;219260;1264;141158;-71
2023/04/17 19:15:45;;;;;;;25.00;15.90;;;;;;;10.35;85.68;100534.98;218549;1263;140876;-75
2023/04/17 19:20:49;;;;;;;22.40;13.70;;;;;;;10.34;85.63;100538.46;216780;1264;140550;-82
2023/04/17 19:25:55;;;;;;;23.30;14.90;;;;;;;10.31;85.74;100540.57;218103;1264;141390;-82
2023/04/17 19:30:59;;;;;;;23.40;15.30;;;;;;;10.32;86.01;100540.69;216671;1267;143476;-79
2023/04/17 19:36:04;;;;;;;23.20;17.10;;;;;;;10.31;86.00;100542.95;216373;1269;141380;-72
2023/04/17 19:41:16;;;;;;;22.50;14.30;;;;;;;10.29;86.15;100538.95;216329;1268;208061;-72
2023/04/17 19:46:21;;;;;;;21.10;13.30;;;;;;;10.26;86.07;100538.55;216477;1267;142546;-70
2023/04/17 19:51:25;;;;;;;23.10;15.70;;;;;;;10.20;86.07;100539.34;217108;1264;141876;-77
2023/04/17 19:56:28;;;;;;;21.60;14.10;;;;;;;10.16;86.22;100542.52;216307;1264;143073;-77
2023/04/17 20:01:31;;;;;;;18.10;14.40;;;;;;;10.14;86.24;100549.54;216429;1263;141493;-73
2023/04/17 20:06:36;;;;;;;20.90;14.30;;;;;;;10.13;86.21;100548.20;217213;1264;140383;-78
2023/04/17 20:11:39;;;;;;;20.50;14.00;;;;;;;10.12;86.31;100546.73;216209;1264;140348;-77
2023/04/17 20:16:44;;;;;;;22.10;13.60;;;;;;;10.10;86.22;100546.16;216580;1265;141614;-70
2023/04/17 20:21:48;;;;;;;20.60;14.90;;;;;;;10.09;86.51;100545.23;216416;1263;140540;-70
2023/04/17 20:26:51;;;;;;;21.30;13.00;;;;;;;10.09;86.39;100547.61;216459;1264;140812;-70
2023/04/17 20:31:54;;;;;;;21.60;15.40;;;;;;;10.06;86.42;100550.14;216446;1264;141863;-81
2023/04/17 20:36:59;;;;;;;21.50;14.80;;;;;;;10.02;86.30;100556.01;216411;1264;142839;-72
2023/04/17 20:42:03;;;;;;;18.70;13.30;;;;;;;9.98;86.22;100559.66;216934;1265;141485;-71
2023/04/17 20:47:06;;;;;;;15.60;11.00;;;;;;;9.96;86.20;100559.77;217638;1264;140929;-70
2023/04/17 20:52:09;;;;;;;18.40;12.50;;;;;;;9.93;86.16;100559.19;216387;1264;140385;-73
2023/04/17 20:57:13;;;;;;;22.00;12.90;;;;;;;9.90;86.11;100563.70;216672;1264;142985;-71
2023/04/17 21:02:15;;;;;;;17.40;12.80;;;;;;;9.87;86.04;100566.05;218331;1264;140569;-73
2023/04/17 21:07:19;;;;;;;21.50;10.50;;;;;;;9.86;86.14;100568.58;217929;1264;140983;-76
2023/04/17 21:12:23;;;;;;;20.70;13.00;;;;;;;9.82;86.03;100571.41;216494;1264;141187;-79
2023/04/17 21:17:26;;;;;;;17.30;11.10;;;;;;;9.78;86.16;100568.33;217359;1267;141261;-70
2023/04/17 21:22:29;;;;;;;18.60;12.20;;;;;;;9.77;86.13;100570.84;216585;1264;140458;-72
2023/04/17 21:27:32;;;;;;;21.30;12.50;;;;;;;9.74;86.12;100576.17;216832;1263;141281;-71
2023/04/17 21:32:41;;;;;;;14.50;11.10;;;;;;;9.72;86.08;100579.70;216519;1264;140579;-71
2023/04/17 21:37:45;;;;;;;15.50;10.40;;;;;;;9.69;85.87;100579.87;217451;1264;140570;-71
2023/04/17 21:42:49;;;;;;;15.90;10.70;;;;;;;9.63;85.84;100580.37;216564;1264;140585;-72
2023/04/17 21:47:53;;;;;;;11.60;9.10;;;;;;;9.59;85.90;100580.16;216593;1264;140187;-73
2023/04/17 21:52:57;;;;;;;12.50;8.50;;;;;;;9.54;85.65;100577.30;216555;1264;139896;-73
2023/04/17 21:58:01;;;;;;;14.20;7.30;;;;;;;9.48;85.69;100578.67;216490;1264;141029;-72
2023/04/17 22:03:05;;;;;;;13.70;8.60;;;;;;;9.41;85.68;100580.52;216609;1264;141530;-73
2023/04/17 22:08:08;;;;;;;15.90;8.80;;;;;;;9.33;85.57;100581.06;216537;1263;141241;-72
2023/04/17 22:13:15;;;;;;;11.50;7.70;;;;;;;9.28;85.67;100587.77;217029;1263;143590;-69
2023/04/17 22:18:19;;;;;;;;;;;;;;;9.23;85.75;100588.05;216469;1267;141033;-69
2023/04/17 22:23:23;;;;;;;12.80;8.10;;;;;;;9.18;85.88;100583.69;217359;1264;126324;-69
2023/04/17 22:28:30;;;;;;;13.10;8.00;;;;;;;9.14;85.68;100585.09;216325;1263;141358;-69
2023/04/17 22:33:33;;;;;;;11.60;7.60;;;;;;;9.10;85.88;100586.15;216513;1263;142262;-70
2023/04/17 22:38:36;;;;;;;14.30;9.60;;;;;;;9.04;86.00;100589.70;217833;1263;140889;-71
2023/04/17 22:43:39;;;;;;;9.10;6.40;;;;;;;9.00;86.19;100591.86;216486;1264;141968;-73